Time;durP1;ratioP1;P1;durP2;ratioP2;P2;SDS_P1;SDS_P2;PMS_P1;PMS_P2;Temp;Humidity;BMP_temperature;BMP_pressure;BME280_temperature;BME280_humidity;BME280_pressure;Samples;Min_cycle;Max_cycle;Signal;HPM_P1;HPM_P2
2020/12/25 00:00:45;;;;;;;10.13;6.13;;;;;;;6.15;93.55;99483.06;4999549;28;20046;-72
2020/12/25 00:03:14;;;;;;;11.55;6.28;;;;;;;6.22;93.38;99483.59;4983089;28;20539;-72
2020/12/25 00:05:43;;;;;;;10.93;6.53;;;;;;;6.09;93.17;99454.28;4999949;28;20054;-80
2020/12/25 00:08:09;;;;;;;10.07;6.50;;;;;;;6.40;93.33;99511.72;5000008;28;20042;-72
2020/12/25 00:10:34;;;;;;;8.75;5.72;;;;;;;6.39;93.50;99522.41;4966292;28;20046;-72
2020/12/25 00:12:59;;;;;;;12.38;6.50;;;;;;;6.32;93.52;99514.78;4982132;28;20094;-71
2020/12/25 00:15:25;;;;;;;10.27;6.25;;;;;;;6.31;93.76;99517.50;4982583;28;20026;-73
2020/12/25 00:17:50;;;;;;;9.63;6.22;;;;;;;6.32;93.52;99514.78;4966103;28;20085;-73
2020/12/25 00:20:16;;;;;;;11.65;6.07;;;;;;;6.24;94.02;99505.53;4982515;28;20133;-72
2020/12/25 00:22:41;;;;;;;8.80;5.80;;;;;;;6.32;93.48;99508.63;4999637;28;20035;-79
2020/12/25 00:25:07;;;;;;;9.35;5.93;;;;;;;6.28;93.56;99505.31;4999854;28;20121;-73
2020/12/25 00:27:32;;;;;;;10.40;5.78;;;;;;;6.23;93.49;99493.22;4982232;28;20042;-75
2020/12/25 00:29:58;;;;;;;10.15;6.10;;;;;;;5.96;93.70;99440.81;4981985;28;20034;-73
2020/12/25 00:32:23;;;;;;;9.55;5.85;;;;;;;6.15;93.85;99491.00;4999873;28;20038;-74
2020/12/25 00:34:48;;;;;;;9.45;6.03;;;;;;;6.10;94.14;99482.47;4982460;28;20042;-74
2020/12/25 00:37:14;;;;;;;12.23;6.50;;;;;;;6.16;93.93;99500.66;4982500;28;20045;-73
2020/12/25 00:39:39;;;;;;;9.68;5.95;;;;;;;6.18;94.17;99506.75;4999689;28;20034;-72
2020/12/25 00:42:05;;;;;;;9.88;6.03;;;;;;;5.99;94.01;99474.25;4981956;28;20042;-72
2020/12/25 00:44:30;;;;;;;9.75;5.88;;;;;;;6.10;93.87;99493.06;4982377;28;20066;-72
2020/12/25 00:46:56;;;;;;;9.52;6.20;;;;;;;6.14;94.11;99514.91;4981837;28;20042;-74
2020/12/25 00:49:21;;;;;;;10.23;6.15;;;;;;;6.09;94.22;99517.81;4999525;28;20117;-73
2020/12/25 00:51:47;;;;;;;10.82;6.53;;;;;;;6.17;94.18;99520.03;4999294;28;20125;-74
2020/12/25 00:54:13;;;;;;;11.02;5.95;;;;;;;6.00;94.00;99497.13;4999583;28;20037;-74
2020/12/25 00:56:38;;;;;;;11.05;6.05;;;;;;;6.11;94.35;99521.25;4982360;28;20121;-73
2020/12/25 00:59:03;;;;;;;8.55;5.63;;;;;;;6.06;94.64;99515.31;4965587;28;20037;-72
2020/12/25 01:01:29;;;;;;;10.05;6.03;;;;;;;6.05;94.72;99515.41;4982338;28;20365;-73
2020/12/25 01:03:54;;;;;;;11.00;6.97;;;;;;;5.99;94.72;99508.66;4999267;28;20113;-72
2020/12/25 01:06:20;;;;;;;11.82;6.28;;;;;;;6.00;95.14;99520.97;4999094;28;20517;-74
2020/12/25 01:08:47;;;;;;;11.50;6.45;;;;;;;6.03;94.34;99518.13;4997409;28;20037;-75
2020/12/25 01:11:14;;;;;;;9.38;5.82;;;;;;;6.03;94.53;99521.63;4996282;28;20030;-73
2020/12/25 01:13:40;;;;;;;10.10;5.80;;;;;;;5.94;93.97;99502.75;4996232;28;20039;-72
2020/12/25 01:16:16;;;;;;;10.27;5.93;;;;;;;5.96;94.00;99524.69;4978596;28;20129;-71
2020/12/25 01:18:43;;;;;;;10.73;5.90;;;;;;;6.07;94.21;99545.28;4996080;28;20507;-72
2020/12/25 01:21:08;;;;;;;9.27;5.82;;;;;;;6.12;94.23;99532.69;4978570;28;20128;-72
2020/12/25 01:23:34;;;;;;;10.07;6.10;;;;;;;5.94;93.67;99508.03;4996061;28;20117;-73
2020/12/25 01:25:59;;;;;;;9.77;5.90;;;;;;;6.14;94.15;99546.69;4995737;28;20026;-74
2020/12/25 01:28:25;;;;;;;10.32;6.30;;;;;;;6.12;93.93;99549.44;4978707;28;20590;-75
2020/12/25 01:30:50;;;;;;;9.18;5.85;;;;;;;6.04;94.05;99535.72;4995788;28;20038;-75
2020/12/25 01:33:16;;;;;;;10.90;6.22;;;;;;;5.89;93.86;99515.34;4995873;28;20125;-73
2020/12/25 01:35:41;;;;;;;9.50;6.30;;;;;;;5.99;94.49;99541.28;4996170;28;20038;-75
2020/12/25 01:38:07;;;;;;;10.23;6.10;;;;;;;5.78;94.11;99501.78;4995824;28;20041;-75
2020/12/25 01:40:33;;;;;;;10.23;6.07;;;;;;;6.12;93.92;99560.00;4996012;28;20038;-75
2020/12/25 01:42:59;;;;;;;9.68;5.93;;;;;;;5.78;93.74;99507.09;4995508;28;20035;-73
2020/12/25 01:45:24;;;;;;;11.82;5.57;;;;;;;6.14;93.70;99558.13;4995863;28;20030;-72
2020/12/25 01:47:51;;;;;;;9.23;5.80;;;;;;;5.71;94.18;99502.13;4995553;28;20113;-73
2020/12/25 01:50:16;;;;;;;10.48;5.80;;;;;;;5.88;93.90;99527.69;4995702;28;20042;-72
2020/12/25 01:52:42;;;;;;;10.60;6.30;;;;;;;6.07;93.99;99569.97;4995578;28;20042;-73
2020/12/25 01:55:09;;;;;;;11.70;6.03;;;;;;;6.03;94.23;99565.78;4995283;28;20819;-74
2020/12/25 01:57:35;;;;;;;10.35;5.90;;;;;;;5.81;94.31;99541.34;4995678;28;20403;-74
2020/12/25 02:00:05;;;;;;;9.70;5.82;;;;;;;5.96;94.25;99572.34;4995140;28;20037;-74
2020/12/25 02:02:31;;;;;;;11.73;5.97;;;;;;;5.71;94.47;99535.69;4995449;28;20113;-74
2020/12/25 02:04:57;;;;;;;9.25;5.70;;;;;;;5.68;94.65;99526.09;4994873;28;20046;-72
2020/12/25 02:07:22;;;;;;;9.65;5.30;;;;;;;5.89;94.48;99563.00;4978129;28;20035;-72
2020/12/25 02:09:48;;;;;;;9.98;5.95;;;;;;;5.54;94.62;99504.78;4995521;28;20035;-74
2020/12/25 02:12:13;;;;;;;10.27;6.05;;;;;;;5.88;94.73;99561.25;4961559;28;20030;-72
2020/12/25 02:14:39;;;;;;;9.23;5.72;;;;;;;5.90;94.30;99555.00;4977912;28;20049;-73
2020/12/25 02:17:04;;;;;;;9.73;5.93;;;;;;;5.88;94.62;99562.09;4995143;28;20136;-72
2020/12/25 02:19:30;;;;;;;9.88;6.00;;;;;;;5.54;94.35;99507.44;4977404;28;20515;-73
2020/12/25 02:21:55;;;;;;;9.65;5.90;;;;;;;5.62;94.21;99520.28;4960937;28;20059;-72
2020/12/25 02:24:20;;;;;;;8.10;5.22;;;;;;;5.85;94.29;99551.69;4994948;28;20037;-73
2020/12/25 02:26:46;;;;;;;8.32;5.32;;;;;;;5.84;94.28;99551.78;4961716;28;20415;-73
2020/12/25 02:29:11;;;;;;;10.00;5.68;;;;;;;5.84;94.31;99551.78;4977138;28;20546;-73
2020/12/25 02:31:37;;;;;;;10.60;5.45;;;;;;;5.83;94.41;99547.41;4994918;28;20512;-73
2020/12/25 02:34:02;;;;;;;10.23;6.03;;;;;;;5.47;94.31;99503.38;4994403;28;20034;-73
2020/12/25 02:36:27;;;;;;;10.32;5.78;;;;;;;5.83;94.49;99553.56;4977280;28;20479;-73
2020/12/25 02:38:53;;;;;;;10.13;5.90;;;;;;;5.68;94.52;99536.66;4976943;28;20084;-74
2020/12/25 02:41:18;;;;;;;10.40;5.97;;;;;;;5.73;94.62;99563.78;4994563;28;20030;-74
2020/12/25 02:43:44;;;;;;;10.75;6.05;;;;;;;5.73;94.40;99542.59;4994563;28;20036;-73
2020/12/25 02:46:09;;;;;;;11.00;5.22;;;;;;;5.85;94.27;99553.47;4960975;28;20150;-74
2020/12/25 02:48:36;;;;;;;9.75;5.82;;;;;;;5.85;94.09;99561.41;4961080;28;20042;-72
2020/12/25 02:51:01;;;;;;;7.78;5.22;;;;;;;5.50;94.00;99512.94;4976771;28;20396;-73
2020/12/25 02:53:26;;;;;;;11.95;5.75;;;;;;;5.80;94.00;99569.63;4994318;28;20038;-73
2020/12/25 02:55:52;;;;;;;9.27;5.95;;;;;;;5.71;94.16;99560.34;4976809;28;20118;-79
2020/12/25 02:58:17;;;;;;;9.00;5.65;;;;;;;5.73;94.06;99561.13;4976863;28;20125;-72
2020/12/25 03:00:43;;;;;;;8.27;4.97;;;;;;;5.81;93.48;99565.19;4994249;28;20109;-72
2020/12/25 03:03:08;;;;;;;9.68;4.95;;;;;;;5.89;93.18;99563.00;4993841;28;20121;-72
2020/12/25 03:05:34;;;;;;;8.52;5.05;;;;;;;5.56;92.44;99496.78;4993965;28;20074;-71
2020/12/25 03:07:59;;;;;;;9.50;4.95;;;;;;;5.95;91.47;99563.53;4960493;28;20038;-72
2020/12/25 03:10:25;;;;;;;7.50;4.57;;;;;;;5.86;91.15;99556.03;4976963;28;20440;-72
2020/12/25 03:12:50;;;;;;;7.18;4.15;;;;;;;5.75;90.61;99519.56;4976929;28;20041;-72
2020/12/25 03:15:16;;;;;;;8.65;4.43;;;;;;;6.14;89.91;99566.06;4994242;28;20031;-72
2020/12/25 03:17:41;;;;;;;6.43;3.90;;;;;;;6.11;89.75;99563.59;4993889;28;20038;-73
2020/12/25 03:20:06;;;;;;;7.95;4.50;;;;;;;6.02;89.81;99550.84;4993666;28;20034;-72
2020/12/25 03:22:32;;;;;;;9.73;4.70;;;;;;;5.81;89.69;99501.66;4960443;28;20526;-74
2020/12/25 03:24:57;;;;;;;7.30;4.60;;;;;;;6.16;89.35;99556.25;4993474;28;20030;-76
2020/12/25 03:27:23;;;;;;;6.13;3.92;;;;;;;6.13;89.51;99553.78;4994088;28;20368;-74
2020/12/25 03:29:48;;;;;;;9.00;4.88;;;;;;;5.89;89.88;99524.13;4993834;28;20030;-75
2020/12/25 03:32:13;;;;;;;7.18;4.65;;;;;;;6.06;89.89;99555.03;4975540;28;20509;-74
2020/12/25 03:34:39;;;;;;;8.65;4.63;;;;;;;5.99;89.89;99532.50;4944654;28;20038;-73
2020/12/25 03:37:04;;;;;;;7.93;4.65;;;;;;;6.02;89.87;99548.19;4960337;28;20556;-75
2020/12/25 03:39:30;;;;;;;7.28;4.60;;;;;;;5.97;90.14;99555.50;4976360;28;20384;-73
2020/12/25 03:41:55;;;;;;;7.50;4.40;;;;;;;6.17;88.86;99546.50;4976050;28;20042;-78
2020/12/25 03:44:21;;;;;;;6.78;3.97;;;;;;;6.17;88.79;99547.38;4994073;28;20109;-74
2020/12/25 03:46:46;;;;;;;8.02;4.05;;;;;;;5.90;88.79;99502.06;4993710;28;20035;-75
2020/12/25 03:49:12;;;;;;;7.57;4.30;;;;;;;5.98;88.52;99510.47;4993245;28;20034;-74
2020/12/25 03:51:37;;;;;;;8.63;4.32;;;;;;;5.88;88.97;99508.31;4944011;28;20146;-75
2020/12/25 03:54:03;;;;;;;9.65;4.30;;;;;;;6.10;88.67;99555.75;4993155;28;20030;-74
2020/12/25 03:56:29;;;;;;;7.28;4.25;;;;;;;6.06;88.91;99552.38;4993461;28;20034;-73
2020/12/25 03:58:54;;;;;;;7.50;4.03;;;;;;;6.04;89.15;99554.25;4976211;28;20030;-73
2020/12/25 04:01:20;;;;;;;7.55;4.20;;;;;;;5.81;89.12;99507.81;4993297;28;20026;-73
2020/12/25 04:03:46;;;;;;;6.53;4.07;;;;;;;5.89;88.83;99526.78;4976256;28;20066;-73
2020/12/25 04:06:11;;;;;;;6.82;3.60;;;;;;;6.00;88.75;99544.78;4975608;28;20184;-74
2020/12/25 04:08:37;;;;;;;6.90;3.85;;;;;;;5.98;88.93;99541.34;4993631;28;20026;-74
2020/12/25 04:11:03;;;;;;;6.75;3.85;;;;;;;5.88;88.85;99535.63;4993176;28;20038;-74
2020/12/25 04:13:28;;;;;;;8.07;4.35;;;;;;;5.92;89.28;99549.63;4993803;28;20034;-73
2020/12/25 04:15:54;;;;;;;6.28;3.92;;;;;;;5.88;89.69;99545.38;4993293;28;20508;-73
2020/12/25 04:18:19;;;;;;;5.90;3.72;;;;;;;5.94;89.19;99553.88;4975782;28;20113;-73
2020/12/25 04:20:45;;;;;;;5.65;3.60;;;;;;;6.03;88.27;99541.97;4993226;28;20034;-74
2020/12/25 04:23:10;;;;;;;6.07;3.45;;;;;;;5.69;88.33;99487.25;4975328;28;20039;-74
2020/12/25 04:25:35;;;;;;;6.03;3.65;;;;;;;6.02;88.16;99532.31;4993219;28;20432;-73
2020/12/25 04:28:01;;;;;;;5.75;3.33;;;;;;;6.14;86.96;99523.72;4975577;28;20420;-73
2020/12/25 04:30:26;;;;;;;6.05;3.25;;;;;;;6.09;86.99;99519.63;4959691;28;20120;-74
2020/12/25 04:32:52;;;;;;;6.55;3.40;;;;;;;6.07;86.49;99503.78;4960054;28;20030;-73
2020/12/25 04:35:17;;;;;;;6.10;3.42;;;;;;;5.90;86.84;99482.66;4975490;28;20125;-72
2020/12/25 04:37:43;;;;;;;6.47;3.75;;;;;;;5.78;86.45;99462.97;4993054;28;20555;-73
2020/12/25 04:40:08;;;;;;;5.65;3.40;;;;;;;6.07;87.15;99524.97;4975945;28;20034;-73
2020/12/25 04:42:40;;;;;;;5.38;3.97;;;;;;;5.99;87.33;99536.00;4993100;28;20030;-72
2020/12/25 04:45:05;;;;;;;6.53;3.65;;;;;;;5.92;87.46;99531.09;4979056;28;20030;-73
2020/12/25 04:47:34;;;;;;;6.95;4.40;;;;;;;5.88;88.14;99554.16;4979352;28;20084;-73
2020/12/25 04:50:00;;;;;;;8.02;4.28;;;;;;;5.57;88.54;99517.84;4996733;28;20096;-78
2020/12/25 04:52:26;;;;;;;6.75;3.95;;;;;;;6.07;87.00;99553.25;4979374;28;20042;-72
2020/12/25 04:54:51;;;;;;;6.53;3.70;;;;;;;5.86;87.57;99544.59;4996876;28;20045;-74
2020/12/25 04:57:17;;;;;;;6.65;4.03;;;;;;;5.59;88.19;99508.03;4963102;28;20452;-73
2020/12/25 04:59:42;;;;;;;6.50;4.07;;;;;;;5.57;88.35;99517.84;4996573;28;20034;-74
2020/12/25 05:02:09;;;;;;;7.63;4.28;;;;;;;5.52;88.95;99513.75;4996324;28;20383;-74
2020/12/25 05:04:34;;;;;;;6.72;4.25;;;;;;;5.71;89.44;99557.72;4979098;28;20084;-74
2020/12/25 05:07:01;;;;;;;6.88;4.20;;;;;;;5.73;88.78;99550.53;4959590;28;20090;-74
2020/12/25 05:09:27;;;;;;;8.85;4.80;;;;;;;5.88;88.04;99566.53;4977106;28;20123;-73
2020/12/25 05:11:53;;;;;;;6.68;4.43;;;;;;;5.78;88.57;99550.28;4976865;28;20103;-73
2020/12/25 05:14:27;;;;;;;6.43;4.15;;;;;;;5.82;88.82;99551.00;4975768;28;20392;-73
2020/12/25 05:16:57;;;;;;;8.25;4.85;;;;;;;5.66;89.21;99543.84;4975841;28;20058;-73
2020/12/25 05:19:28;;;;;;;6.65;4.55;;;;;;;5.69;89.47;99545.47;4975607;28;20046;-73
2020/12/25 05:22:00;;;;;;;6.88;4.50;;;;;;;5.40;89.68;99508.16;4975679;28;20464;-72
2020/12/25 05:24:27;;;;;;;9.05;4.93;;;;;;;5.61;89.79;99559.09;4975251;28;20034;-73
2020/12/25 05:26:53;;;;;;;6.43;4.30;;;;;;;5.67;89.06;99552.63;4976706;28;20034;-72
2020/12/25 05:29:21;;;;;;;6.55;4.47;;;;;;;5.65;89.21;99554.50;4975289;28;20452;-73
2020/12/25 05:31:48;;;;;;;6.82;4.30;;;;;;;5.55;89.23;99540.88;4976527;28;20074;-72
2020/12/25 05:34:14;;;;;;;8.32;4.70;;;;;;;5.44;88.72;99508.84;4976347;28;20035;-73
2020/12/25 05:36:48;;;;;;;7.70;4.72;;;;;;;5.63;89.52;99551.09;4976933;28;20042;-73
2020/12/25 05:39:33;;;;;;;7.40;4.95;;;;;;;5.65;88.84;99550.06;4976137;28;20038;-73
2020/12/25 05:42:01;;;;;;;8.23;4.35;;;;;;;5.32;88.80;99505.03;4976386;28;20069;-73
2020/12/25 05:44:29;;;;;;;7.97;4.30;;;;;;;5.64;88.25;99547.50;4975887;28;20046;-73
2020/12/25 05:46:59;;;;;;;6.50;4.40;;;;;;;5.70;88.46;99558.66;4976179;28;20027;-73
2020/12/25 05:49:27;;;;;;;7.50;4.65;;;;;;;5.66;88.05;99551.78;4974738;28;20031;-72
2020/12/25 05:51:53;;;;;;;9.48;4.82;;;;;;;5.66;88.07;99551.78;4975020;28;20033;-72
2020/12/25 05:54:21;;;;;;;8.00;4.93;;;;;;;5.62;88.21;99559.97;4974105;28;20039;-71
2020/12/25 05:56:52;;;;;;;6.28;4.43;;;;;;;5.72;87.43;99546.19;4975526;28;20039;-73
2020/12/25 05:59:31;;;;;;;6.35;3.92;;;;;;;5.91;86.01;99545.25;4974492;28;20031;-73
2020/12/25 06:01:59;;;;;;;6.53;4.15;;;;;;;5.83;86.00;99542.13;4975280;28;20490;-73
2020/12/25 06:04:30;;;;;;;6.45;4.32;;;;;;;5.84;86.52;99565.00;4974429;28;20031;-73
2020/12/25 06:06:56;;;;;;;7.13;4.63;;;;;;;5.73;87.03;99545.25;4992645;28;20460;-72
2020/12/25 06:09:34;;;;;;;6.25;4.65;;;;;;;5.73;87.36;99563.78;4961458;28;20395;-73
2020/12/25 06:12:00;;;;;;;8.05;5.13;;;;;;;5.76;87.59;99565.41;4995461;28;20038;-72
2020/12/25 06:14:26;;;;;;;8.20;5.28;;;;;;;5.49;88.09;99520.03;4977573;28;20034;-73
2020/12/25 06:17:02;;;;;;;6.75;5.05;;;;;;;5.57;88.30;99543.44;4995378;28;20034;-73
2020/12/25 06:19:40;;;;;;;8.00;4.97;;;;;;;5.63;88.76;99566.97;4995318;28;20038;-72
2020/12/25 06:22:13;;;;;;;8.98;5.75;;;;;;;5.52;87.95;99549.00;4995035;28;20026;-72
2020/12/25 06:24:40;;;;;;;8.25;5.43;;;;;;;5.58;88.10;99555.75;4978165;28;20416;-73
2020/12/25 06:27:06;;;;;;;7.47;5.13;;;;;;;5.36;87.69;99534.81;4977488;28;20061;-74
2020/12/25 06:29:32;;;;;;;7.63;5.30;;;;;;;5.59;87.40;99574.19;4976907;28;20038;-73
2020/12/25 06:32:00;;;;;;;9.05;5.45;;;;;;;5.61;86.47;99569.69;4961446;28;20432;-73
2020/12/25 06:34:42;;;;;;;8.98;5.85;;;;;;;5.53;86.31;99574.50;4994607;28;20080;-73
2020/12/25 06:37:11;;;;;;;8.15;5.45;;;;;;;5.49;86.09;99564.16;4994601;28;20030;-78
2020/12/25 06:39:36;;;;;;;7.65;5.07;;;;;;;5.39;86.42;99563.75;4977361;28;20038;-72
2020/12/25 06:42:02;;;;;;;9.18;4.50;;;;;;;5.21;85.96;99528.53;4994868;28;20455;-73
2020/12/25 06:44:29;;;;;;;8.88;5.60;;;;;;;5.22;85.92;99545.25;4977144;28;20729;-74
2020/12/25 06:47:02;;;;;;;8.48;5.30;;;;;;;5.42;85.77;99566.25;4961809;28;20031;-74
2020/12/25 06:49:35;;;;;;;7.70;5.15;;;;;;;5.35;86.44;99567.50;4994254;28;20034;-75
2020/12/25 06:52:01;;;;;;;7.15;4.85;;;;;;;5.37;85.37;99558.53;4994670;28;20037;-75
2020/12/25 06:54:27;;;;;;;7.28;4.90;;;;;;;5.38;85.03;99562.88;4994102;28;20457;-73
2020/12/25 06:56:53;;;;;;;7.97;5.03;;;;;;;5.12;84.71;99521.91;4994597;28;20039;-74
2020/12/25 06:59:21;;;;;;;9.15;5.50;;;;;;;5.36;85.40;99570.06;4976650;28;20487;-72
2020/12/25 07:01:48;;;;;;;7.47;5.35;;;;;;;5.29;85.90;99567.78;4994392;28;20038;-73
2020/12/25 07:04:27;;;;;;;9.20;5.78;;;;;;;5.14;86.41;99551.75;4994151;28;20030;-75
2020/12/25 07:07:04;;;;;;;8.90;5.82;;;;;;;5.15;86.75;99582.53;4993973;28;20058;-74
2020/12/25 07:09:36;;;;;;;9.05;6.13;;;;;;;4.77;87.21;99543.88;4976532;28;20834;-73
2020/12/25 07:12:08;;;;;;;9.85;6.30;;;;;;;5.01;86.92;99589.41;4994099;28;20038;-73
2020/12/25 07:14:33;;;;;;;7.93;5.80;;;;;;;4.94;87.03;99588.88;4993721;28;20038;-74
2020/12/25 07:16:58;;;;;;;8.98;5.55;;;;;;;4.76;86.38;99580.03;4994027;28;20033;-73
2020/12/25 07:19:24;;;;;;;8.73;5.85;;;;;;;4.88;85.32;99607.66;4976311;28;20396;-73
2020/12/25 07:21:50;;;;;;;9.48;6.18;;;;;;;4.87;85.16;99621.78;4960764;28;20133;-73
2020/12/25 07:24:16;;;;;;;8.20;5.15;;;;;;;4.89;83.73;99601.44;4976184;28;20034;-72
2020/12/25 07:26:42;;;;;;;8.57;5.28;;;;;;;4.52;83.97;99554.72;4960469;28;20038;-71
2020/12/25 07:29:14;;;;;;;8.70;6.50;;;;;;;4.71;84.49;99615.50;4994112;28;20062;-71
2020/12/25 07:31:50;;;;;;;9.48;6.05;;;;;;;4.71;83.61;99613.72;4993980;28;20030;-72
2020/12/25 07:34:23;;;;;;;9.20;5.93;;;;;;;4.69;83.34;99610.28;4976361;28;20395;-72
2020/12/25 07:36:50;;;;;;;8.93;6.33;;;;;;;4.58;84.17;99605.50;4993880;28;20030;-72
2020/12/25 07:39:16;;;;;;;9.05;6.15;;;;;;;4.55;84.75;99621.50;4993356;28;20377;-73
2020/12/25 07:41:42;;;;;;;10.00;6.35;;;;;;;4.42;84.81;99601.84;4993876;28;20121;-72
2020/12/25 07:44:07;;;;;;;10.75;6.78;;;;;;;4.41;84.54;99602.75;4976372;28;20106;-73
2020/12/25 07:46:33;;;;;;;12.05;6.28;;;;;;;4.19;84.38;99562.44;4993524;28;20030;-73
2020/12/25 07:49:00;;;;;;;10.18;6.70;;;;;;;4.56;84.13;99625.84;4976273;28;20038;-73
2020/12/25 07:51:25;;;;;;;10.45;7.28;;;;;;;4.42;84.97;99628.25;4993244;28;20081;-75
2020/12/25 07:53:53;;;;;;;10.10;6.78;;;;;;;4.48;84.03;99637.69;4976078;28;20038;-72
2020/12/25 07:56:21;;;;;;;11.23;7.13;;;;;;;4.10;84.66;99590.09;4993232;28;20456;-73
2020/12/25 07:58:51;;;;;;;9.68;6.13;;;;;;;4.54;83.98;99654.13;4993808;28;20039;-73
2020/12/25 08:01:20;;;;;;;10.10;6.75;;;;;;;4.42;83.39;99638.81;4993317;28;20038;-73
2020/12/25 08:03:47;;;;;;;11.32;6.57;;;;;;;4.52;83.59;99655.94;4975942;28;20030;-74
2020/12/25 08:06:17;;;;;;;9.50;6.53;;;;;;;4.50;83.38;99654.31;4993020;28;20106;-74
2020/12/25 08:08:52;;;;;;;11.05;6.32;;;;;;;4.41;83.31;99652.09;4976245;28;20030;-74
2020/12/25 08:11:19;;;;;;;8.65;5.40;;;;;;;4.38;81.66;99658.38;4993351;28;20030;-76
2020/12/25 08:13:48;;;;;;;8.85;5.22;;;;;;;4.41;82.58;99658.22;4993500;28;20042;-74
2020/12/25 08:16:14;;;;;;;7.47;4.53;;;;;;;4.39;81.76;99664.50;4993409;28;20356;-72
2020/12/25 08:18:39;;;;;;;7.68;5.10;;;;;;;4.15;81.66;99624.19;4977206;28;20050;-74
2020/12/25 08:21:05;;;;;;;8.48;5.15;;;;;;;4.37;81.34;99667.22;4980273;28;20088;-71
2020/12/25 08:23:35;;;;;;;7.43;4.75;;;;;;;4.29;81.96;99674.63;4997207;28;20066;-75
2020/12/25 08:26:01;;;;;;;7.40;5.20;;;;;;;4.07;81.78;99643.00;4998690;28;20034;-76
2020/12/25 08:28:30;;;;;;;7.10;4.60;;;;;;;4.23;81.88;99686.28;5001352;28;20045;-77
2020/12/25 08:30:56;;;;;;;7.93;5.20;;;;;;;3.97;81.86;99653.13;4997902;28;20050;-75
2020/12/25 08:33:26;;;;;;;8.35;5.50;;;;;;;4.08;82.31;99681.69;4980155;28;20031;-74
2020/12/25 08:35:53;;;;;;;8.05;5.22;;;;;;;3.76;82.99;99646.06;4997736;28;20069;-74
2020/12/25 08:38:19;;;;;;;7.88;5.47;;;;;;;4.13;82.81;99705.22;4979187;28;20034;-79
2020/12/25 08:40:46;;;;;;;8.95;5.90;;;;;;;3.99;82.99;99677.66;4979549;28;20023;-74
2020/12/25 08:43:17;;;;;;;8.60;5.45;;;;;;;4.00;83.61;99695.19;4979633;28;20039;-73
2020/12/25 08:45:56;;;;;;;8.52;5.10;;;;;;;3.99;83.31;99696.13;4996572;28;20034;-73
2020/12/25 08:48:22;;;;;;;8.00;5.05;;;;;;;3.93;83.65;99682.31;4996400;28;20054;-72
2020/12/25 08:50:48;;;;;;;7.95;5.43;;;;;;;3.87;83.90;99694.00;4979574;28;20034;-73
2020/12/25 08:53:21;;;;;;;7.43;5.20;;;;;;;3.62;83.70;99667.75;4996752;28;20030;-73
2020/12/25 08:55:49;;;;;;;4.82;3.47;;;;;;;3.81;83.86;99688.09;4996893;28;20034;-72
2020/12/25 08:58:19;;;;;;;8.75;5.80;;;;;;;3.77;83.84;99692.66;4996499;28;20048;-72
2020/12/25 09:01:01;;;;;;;6.60;4.80;;;;;;;3.38;84.19;99637.13;4978928;28;20557;-73
2020/12/25 09:03:39;;;;;;;7.78;5.20;;;;;;;3.73;84.11;99684.00;4996504;28;20026;-72
2020/12/25 09:06:06;;;;;;;10.23;6.20;;;;;;;3.72;84.21;99671.75;4978739;28;20054;-73
2020/12/25 09:08:31;;;;;;;7.85;5.15;;;;;;;3.43;83.83;99630.75;4978864;28;20034;-75
2020/12/25 09:10:57;;;;;;;8.57;5.20;;;;;;;3.68;83.30;99669.31;4996175;28;20030;-76
2020/12/25 09:13:22;;;;;;;7.00;4.85;;;;;;;3.73;83.63;99668.19;4996030;28;20061;-77
2020/12/25 09:15:48;;;;;;;8.00;4.88;;;;;;;3.67;83.33;99667.59;4996247;28;20038;-74
2020/12/25 09:18:13;;;;;;;7.93;4.85;;;;;;;3.79;82.90;99682.91;4996467;28;20038;-74
2020/12/25 09:20:39;;;;;;;8.38;4.85;;;;;;;3.80;82.19;99692.53;4978571;28;20494;-74
2020/12/25 09:23:04;;;;;;;7.57;4.75;;;;;;;3.87;82.23;99708.97;4995184;28;20046;-75
2020/12/25 09:25:29;;;;;;;9.45;5.22;;;;;;;3.96;81.69;99712.09;4994270;28;20037;-75
2020/12/25 09:27:55;;;;;;;6.82;4.80;;;;;;;4.07;81.36;99708.16;4977378;28;20065;-74
2020/12/25 09:30:20;;;;;;;7.93;5.00;;;;;;;4.07;80.68;99694.94;4978621;28;20034;-74
2020/12/25 09:32:46;;;;;;;9.63;4.95;;;;;;;4.14;80.78;99717.50;4996162;28;20030;-74
2020/12/25 09:35:11;;;;;;;6.97;4.55;;;;;;;4.09;81.07;99722.13;4996189;28;20061;-72
2020/12/25 09:37:37;;;;;;;10.65;4.78;;;;;;;3.83;81.95;99697.66;4995861;28;20396;-73
2020/12/25 09:40:02;;;;;;;8.13;5.18;;;;;;;3.84;81.79;99694.09;4977179;28;20100;-73
2020/12/25 09:42:28;;;;;;;7.80;4.97;;;;;;;3.92;81.80;99699.06;4976921;28;20057;-75
2020/12/25 09:44:53;;;;;;;5.32;3.28;;;;;;;3.64;81.74;99633.41;4977533;28;20054;-72
2020/12/25 09:47:19;;;;;;;10.57;5.13;;;;;;;4.01;81.34;99710.09;4994519;28;20038;-73
2020/12/25 09:49:44;;;;;;;8.57;5.43;;;;;;;3.97;81.90;99692.69;4994190;28;20528;-72
2020/12/25 09:52:10;;;;;;;8.20;5.00;;;;;;;4.06;81.98;99695.88;4994449;28;20125;-74
2020/12/25 09:54:35;;;;;;;13.70;6.35;;;;;;;3.94;82.17;99690.16;4994323;28;20527;-73
2020/12/25 09:57:02;;;;;;;8.07;4.97;;;;;;;3.95;83.21;99681.31;4976885;28;20057;-72
2020/12/25 09:59:27;;;;;;;11.00;6.13;;;;;;;4.10;82.61;99695.66;4995395;28;20053;-72
2020/12/25 10:01:53;;;;;;;8.63;5.70;;;;;;;4.19;80.94;99697.91;4995730;28;20125;-73
2020/12/25 10:04:18;;;;;;;8.27;5.05;;;;;;;4.28;81.02;99712.50;4978205;28;20472;-74
2020/12/25 10:06:44;;;;;;;10.70;5.65;;;;;;;4.35;81.26;99700.75;4945508;28;20459;-73
2020/12/25 10:09:09;;;;;;;9.95;5.53;;;;;;;4.08;81.44;99657.06;4995310;28;20031;-74
2020/12/25 10:11:35;;;;;;;8.90;5.00;;;;;;;4.24;79.89;99671.28;4977590;28;20049;-77
2020/12/25 10:14:00;;;;;;;8.70;5.13;;;;;;;4.44;80.67;99684.50;4981074;28;20042;-74
2020/12/25 10:16:26;;;;;;;9.77;5.47;;;;;;;4.69;80.05;99688.69;4995288;28;20101;-72
2020/12/25 10:18:52;;;;;;;8.25;5.07;;;;;;;4.41;79.67;99654.72;4992856;28;20050;-76
2020/12/25 10:21:20;;;;;;;9.68;5.70;;;;;;;4.59;79.12;99691.75;4992477;28;20030;-74
2020/12/25 10:23:46;;;;;;;8.75;5.80;;;;;;;4.80;79.22;99686.41;4974995;28;20038;-76
2020/12/25 10:26:12;;;;;;;8.60;5.78;;;;;;;4.73;78.98;99691.13;4993992;28;20034;-72
2020/12/25 10:28:39;;;;;;;9.85;5.57;;;;;;;4.66;79.19;99704.69;4977900;28;20487;-71
2020/12/25 10:31:05;;;;;;;8.88;6.13;;;;;;;4.65;78.85;99708.25;4960866;28;20034;-71
2020/12/25 10:33:31;;;;;;;10.20;6.03;;;;;;;4.70;79.12;99707.09;4977419;28;20034;-73
2020/12/25 10:35:58;;;;;;;11.50;6.03;;;;;;;4.77;78.34;99712.97;4994696;28;20026;-72
2020/12/25 10:38:23;;;;;;;10.98;5.50;;;;;;;5.00;77.49;99715.44;4977252;28;20037;-74
2020/12/25 10:40:49;;;;;;;9.02;6.03;;;;;;;4.97;78.15;99697.06;4994266;28;20030;-76
2020/12/25 10:43:15;;;;;;;9.10;5.70;;;;;;;5.16;77.41;99694.44;4977389;28;20035;-75
2020/12/25 10:45:40;;;;;;;11.73;6.30;;;;;;;5.21;77.85;99702.13;4976788;28;20030;-71
2020/12/25 10:48:06;;;;;;;11.07;6.10;;;;;;;5.20;77.22;99695.13;4976962;28;20050;-72
2020/12/25 10:50:31;;;;;;;10.85;6.53;;;;;;;5.15;77.07;99698.88;4976340;28;20038;-73
2020/12/25 10:52:57;;;;;;;9.23;5.68;;;;;;;5.06;76.87;99672.00;4977165;28;20030;-77
2020/12/25 10:55:22;;;;;;;10.45;5.65;;;;;;;5.25;77.98;99714.31;4994486;28;20447;-71
2020/12/25 10:57:48;;;;;;;8.18;5.68;;;;;;;5.35;77.85;99713.81;4995030;28;20455;-73
2020/12/25 11:00:13;;;;;;;10.45;5.93;;;;;;;5.36;76.45;99698.78;4977501;28;20034;-72
2020/12/25 11:02:39;;;;;;;12.32;5.85;;;;;;;5.34;76.07;99666.28;4994273;28;20110;-75
2020/12/25 11:05:05;;;;;;;10.95;6.15;;;;;;;5.53;76.78;99692.69;4993754;28;20035;-76
2020/12/25 11:07:31;;;;;;;10.38;5.60;;;;;;;5.53;75.69;99695.34;4994173;28;20109;-71
2020/12/25 11:09:57;;;;;;;8.38;5.38;;;;;;;5.54;75.67;99689.97;4961053;28;20109;-71
2020/12/25 11:12:23;;;;;;;9.40;5.72;;;;;;;5.59;75.69;99687.94;4977142;28;20464;-72
2020/12/25 11:14:48;;;;;;;10.20;5.88;;;;;;;5.49;75.30;99670.81;4945161;28;20038;-73
2020/12/25 11:17:15;;;;;;;10.98;6.10;;;;;;;5.47;76.02;99689.41;4994236;28;20042;-71
2020/12/25 11:19:44;;;;;;;11.20;5.90;;;;;;;5.38;75.19;99668.69;4976422;28;20503;-72
2020/12/25 11:22:16;;;;;;;10.23;5.68;;;;;;;5.56;75.13;99682.81;4994218;28;20030;-71
2020/12/25 11:24:42;;;;;;;9.98;5.93;;;;;;;5.55;75.30;99678.44;4961335;28;20041;-72
2020/12/25 11:27:08;;;;;;;8.80;5.65;;;;;;;5.56;74.80;99672.22;4976684;28;20042;-74
2020/12/25 11:29:33;;;;;;;11.23;6.22;;;;;;;5.43;75.58;99668.47;4959975;28;20112;-75
2020/12/25 11:31:59;;;;;;;9.98;6.10;;;;;;;5.42;75.24;99699.38;4993850;28;20076;-72
2020/12/25 11:34:24;;;;;;;11.48;5.97;;;;;;;5.45;75.02;99709.78;4993593;28;20035;-72
2020/12/25 11:36:50;;;;;;;8.88;5.68;;;;;;;5.33;74.73;99672.50;4993670;28;20037;-72